Middle Granville, NY (12849)

6:54 AM EST on January 30, 2015 (GMT -0500)
APRSWXNET Granville NY US | Change Station
CLOSE
Current Station
Personal Weather Station
Location: Granville, NY
Elevation: 419 ft
Nearby Weather Stations

Elev 419 ft 43.40 °N, 73.27 °W | Updated 22 minutes ago

Snow
Snow
25 °F
Feels Like 25 °F
N
0
Wind Variable Wind from SSW
Gusts 1.0 mph

Today
High -- | Low -- °F
--% Chance of Precip.
Yesterday
High -- | Low -- °F
Precip. -- in
7:11 AM 5:01 PM
Waxing Gibbous, 82% visible
Pressure 29.82 in
Visibility 5.0 miles
Clouds Scattered Clouds 800 ft
Overcast 2700 ft
Windchill 25 °F
Dew Point 24 °F
Humidity 94%
Rainfall 0.00 in
Snow Depth Not available.
UV 0 out of 12
Pollen .10 out of 12
Air Quality Not available.
Flu Activity Not available.
SPECI KGFL 301119Z AUTO 21005KT 5SM -SN BR SCT008 OVC027 M03/M04 A2982 RMK AO2 P0000 T10281044

More Conditions Fewer Conditions

Pressure 29.82 in
Visibility 5.0 miles
Clouds Scattered Clouds 800 ft
Overcast 2700 ft
Windchill 25 °F
Dew Point 24 °F
Humidity 94%
Rainfall 0.00 in
Snow Depth Not available.
UV 0 out of 12
Pollen .10 out of 12
Air Quality Not available.
Flu Activity Not available.
SPECI KGFL 301119Z AUTO 21005KT 5SM -SN BR SCT008 OVC027 M03/M04 A2982 RMK AO2 P0000 T10281044

More Conditions Fewer Conditions

10-Day Weather Forecast

Almanac

Astronomy

Jan. 30, 2015 Rise Set
Actual Time
Civil Twilight
Nautical Twilight
Astronomical Twilight
Moon
Length of Visible Light
Length of Day
Tomorrow will be .
, % of the Moon is Illuminated

Today's Extremes

State Highs State Lows

Community

WunderPhotos

Upload Photos

1,791,737 photos uploaded!

WunderBlogs® & News

Nearby

Air Quality

  Air Quality AQ Index Pollutant
Not available.

Snow Depth

Station Depth Elevation

Earthquake Activity

City Distance Mag. Time & Date
Minimum magnitude displayed is 2.5.

Coastal Water Temperatures

Place Temperature

Nearby Weather Stations